createdAt,value
2019-03-28T00:02:55.499Z,23.00
2019-03-28T00:07:51.467Z,12.37
2019-03-28T00:12:48.363Z,13.60
2019-03-28T00:17:44.293Z,16.90
2019-03-28T00:22:45.165Z,13.27
2019-03-28T00:27:41.166Z,20.30
2019-03-28T00:32:37.225Z,12.30
2019-03-28T00:37:33.179Z,14.93
2019-03-28T00:42:29.095Z,24.60
2019-03-28T00:47:25.079Z,15.87
2019-03-28T00:52:21.033Z,13.23
2019-03-28T00:57:17.039Z,14.10
2019-03-28T01:02:12.981Z,14.47
2019-03-28T01:07:08.984Z,12.97
2019-03-28T01:12:04.975Z,16.97
2019-03-28T01:17:00.962Z,12.83
2019-03-28T01:21:56.985Z,18.23
2019-03-28T01:26:57.603Z,14.07
2019-03-28T01:31:51.011Z,13.37
2019-03-28T01:36:46.967Z,16.03
2019-03-28T01:41:42.924Z,17.60
2019-03-28T01:46:38.837Z,12.77
2019-03-28T01:51:34.893Z,13.30
2019-03-28T01:56:30.899Z,11.83
2019-03-28T02:01:26.831Z,23.87
2019-03-28T02:06:22.874Z,13.63
2019-03-28T02:11:18.929Z,12.00
2019-03-28T02:16:14.972Z,20.03
2019-03-28T02:21:10.960Z,16.03
2019-03-28T02:26:07.005Z,12.93
2019-03-28T02:31:03.041Z,16.70
2019-03-28T02:35:59.061Z,12.47
2019-03-28T02:40:55.118Z,17.40
2019-03-28T02:45:52.462Z,27.67
2019-03-28T02:50:48.429Z,21.27
2019-03-28T02:55:44.549Z,15.77
2019-03-28T03:00:41.626Z,23.13
2019-03-28T03:05:38.334Z,13.33
2019-03-28T03:10:34.814Z,17.67
2019-03-28T03:15:31.334Z,13.83
2019-03-28T03:20:27.327Z,12.97
2019-03-28T03:25:23.465Z,10.63
2019-03-28T03:30:19.528Z,14.43
2019-03-28T03:35:16.538Z,22.37
2019-03-28T03:40:14.464Z,12.57
2019-03-28T03:45:10.451Z,15.47
2019-03-28T03:50:06.737Z,21.00
2019-03-28T03:55:05.122Z,21.47
2019-03-28T04:00:01.017Z,25.57
2019-03-28T04:04:57.058Z,20.80
2019-03-28T04:09:53.044Z,21.57
2019-03-28T04:14:48.952Z,17.10
2019-03-28T04:19:44.883Z,23.23
2019-03-28T04:24:41.480Z,25.23
2019-03-28T04:29:37.378Z,25.03
2019-03-28T04:34:33.310Z,20.20
2019-03-28T04:39:29.327Z,18.83
2019-03-28T04:44:25.243Z,20.27
2019-03-28T04:49:21.159Z,23.80
2019-03-28T04:54:19.582Z,26.27
2019-03-28T04:59:15.641Z,22.50
2019-03-28T05:04:11.549Z,23.33
2019-03-28T05:09:07.459Z,23.80
2019-03-28T05:14:03.372Z,25.33
2019-03-28T05:18:59.993Z,25.87
2019-03-28T05:23:56.797Z,20.70
2019-03-28T05:28:58.016Z,30.63
2019-03-28T05:33:57.086Z,21.63
2019-03-28T05:38:54.315Z,22.83
2019-03-28T05:43:51.601Z,22.20
2019-03-28T05:48:50.819Z,18.67
2019-03-28T05:53:48.834Z,24.40
2019-03-28T05:58:45.520Z,22.37
2019-03-28T06:03:42.470Z,20.10
2019-03-28T06:08:39.872Z,21.27
2019-03-28T06:13:36.965Z,21.03
2019-03-28T06:18:35.032Z,26.40
2019-03-28T06:23:32.325Z,26.80
2019-03-28T06:28:29.122Z,27.00
2019-03-28T06:33:25.732Z,20.57
2019-03-28T06:38:27.470Z,21.27
2019-03-28T06:43:24.290Z,27.10
2019-03-28T06:48:22.136Z,25.13
2019-03-28T06:53:19.057Z,29.23
2019-03-28T06:58:17.068Z,24.47
2019-03-28T07:03:15.128Z,22.97
2019-03-28T07:08:12.847Z,29.43
2019-03-28T07:13:10.335Z,35.43
2019-03-28T07:18:07.067Z,29.03
2019-03-28T07:23:03.463Z,33.13
2019-03-28T07:28:00.133Z,30.37
2019-03-28T07:32:56.672Z,19.70
2019-03-28T07:37:53.088Z,29.57
2019-03-28T07:42:50.558Z,25.40
2019-03-28T07:47:47.126Z,20.33
2019-03-28T07:52:48.302Z,22.37
2019-03-28T07:57:44.951Z,21.07
2019-03-28T08:02:41.803Z,21.90
2019-03-28T08:07:45.067Z,23.00
2019-03-28T08:12:37.059Z,25.13
2019-03-28T08:17:34.309Z,24.97
2019-03-28T08:22:32.942Z,21.80
2019-03-28T08:27:31.310Z,18.50
2019-03-28T08:32:28.499Z,15.10
2019-03-28T08:37:25.544Z,22.00
2019-03-28T08:42:22.370Z,25.43
2019-03-28T08:47:21.098Z,20.17
2019-03-28T08:52:17.564Z,24.43
2019-03-28T08:57:14.661Z,20.73
2019-03-28T09:02:11.276Z,14.80
2019-03-28T09:07:07.853Z,10.13
2019-03-28T09:12:04.481Z,8.57
2019-03-28T09:17:01.061Z,12.23
2019-03-28T09:21:59.607Z,9.90
2019-03-28T09:26:59.675Z,11.30
2019-03-28T09:31:57.540Z,14.77
2019-03-28T09:36:54.380Z,11.17
2019-03-28T09:41:54.407Z,15.30
2019-03-28T09:46:51.097Z,17.63
2019-03-28T09:51:47.865Z,19.87
2019-03-28T09:56:47.303Z,7.53
2019-03-28T10:01:43.962Z,14.03
2019-03-28T10:06:40.632Z,18.60
2019-03-28T10:11:37.225Z,17.07
2019-03-28T10:16:35.652Z,20.40
2019-03-28T10:21:32.597Z,14.93
2019-03-28T10:26:30.615Z,7.53
2019-03-28T10:31:27.598Z,10.63
2019-03-28T10:36:27.592Z,11.13
2019-03-28T10:41:25.693Z,16.07
2019-03-28T10:46:21.351Z,9.43
2019-03-28T10:51:18.144Z,8.77
2019-03-28T10:56:21.900Z,11.07
2019-03-28T11:01:16.507Z,6.63
2019-03-28T11:06:12.199Z,6.80
2019-03-28T11:11:08.968Z,3.00
2019-03-28T11:16:05.881Z,3.00
2019-03-28T11:21:03.247Z,4.80
2019-03-28T11:26:00.078Z,14.80
2019-03-28T11:30:56.548Z,3.27
2019-03-28T11:35:53.019Z,6.17
2019-03-28T11:40:49.916Z,8.73
2019-03-28T11:45:46.618Z,6.23
2019-03-28T11:50:42.627Z,7.60
2019-03-28T11:55:38.604Z,13.93
2019-03-28T12:00:34.613Z,7.07
2019-03-28T12:05:30.570Z,5.90
2019-03-28T12:10:26.458Z,6.80
2019-03-28T12:15:22.375Z,7.83
2019-03-28T12:20:18.288Z,10.53
2019-03-28T12:25:14.202Z,11.70
2019-03-28T12:30:11.832Z,6.17
2019-03-28T12:35:08.845Z,11.70
2019-03-28T12:40:05.859Z,8.97
2019-03-28T12:45:03.775Z,23.53
2019-03-28T12:49:59.699Z,7.40
2019-03-28T12:54:56.342Z,6.33
2019-03-28T12:59:53.689Z,7.73
2019-03-28T13:04:49.872Z,10.00
2019-03-28T13:09:45.788Z,7.13
2019-03-28T13:14:41.708Z,6.80
2019-03-28T13:19:37.620Z,9.33
2019-03-28T13:24:34.248Z,9.10
2019-03-28T13:29:30.355Z,9.60
2019-03-28T13:34:26.938Z,6.13
2019-03-28T13:39:23.086Z,8.80
2019-03-28T13:44:19.015Z,7.93
2019-03-28T13:49:15.015Z,10.10
2019-03-28T13:54:17.662Z,11.43
2019-03-28T13:59:13.691Z,8.93
2019-03-28T14:04:09.601Z,11.10
2019-03-28T14:09:06.114Z,12.53
2019-03-28T14:14:02.039Z,8.80
2019-03-28T14:18:57.921Z,9.93
2019-03-28T14:23:53.913Z,18.90
2019-03-28T14:28:50.423Z,11.57
2019-03-28T14:33:46.575Z,7.50
2019-03-28T14:38:42.485Z,8.00
2019-03-28T14:43:38.414Z,15.03
2019-03-28T14:48:34.495Z,12.00
2019-03-28T14:53:30.446Z,12.80
2019-03-28T14:58:26.784Z,10.67
2019-03-28T15:03:27.239Z,11.23
2019-03-28T15:08:22.131Z,13.83
2019-03-28T15:13:18.068Z,7.00
2019-03-28T15:18:17.804Z,7.07
2019-03-28T15:23:16.264Z,6.67
2019-03-28T15:28:15.301Z,6.60
2019-03-28T15:33:12.005Z,10.33
2019-03-28T15:38:11.652Z,10.43
2019-03-28T15:43:07.710Z,5.67
2019-03-28T15:48:03.736Z,8.03
2019-03-28T15:52:59.705Z,7.10
2019-03-28T15:57:55.673Z,10.10
2019-03-28T16:02:51.590Z,9.20
2019-03-28T16:07:47.830Z,10.83
2019-03-28T16:12:44.473Z,9.27
2019-03-28T16:17:40.484Z,5.30
2019-03-28T16:22:37.708Z,10.40
2019-03-28T16:27:33.884Z,7.37
2019-03-28T16:32:29.795Z,6.27
2019-03-28T16:37:25.726Z,5.10
2019-03-28T16:42:21.636Z,8.70
2019-03-28T16:47:17.548Z,5.83
2019-03-28T16:52:13.490Z,7.37
2019-03-28T16:57:09.427Z,5.00
2019-03-28T17:02:05.339Z,8.00
2019-03-28T17:07:01.263Z,7.43
2019-03-28T17:11:57.173Z,7.87
2019-03-28T17:16:53.097Z,8.77
2019-03-28T17:21:49.053Z,9.57
2019-03-28T17:26:45.035Z,8.47
2019-03-28T17:31:40.948Z,5.20
2019-03-28T17:36:37.026Z,9.30
2019-03-28T17:41:35.672Z,10.47
2019-03-28T17:46:32.563Z,8.00
2019-03-28T17:51:28.539Z,6.90
2019-03-28T17:56:24.461Z,9.17
2019-03-28T18:01:20.483Z,9.53
2019-03-28T18:06:16.410Z,9.70
2019-03-28T18:11:12.302Z,7.37
2019-03-28T18:16:09.820Z,5.23
2019-03-28T18:21:05.731Z,7.20
2019-03-28T18:26:02.124Z,6.77
2019-03-28T18:30:58.031Z,8.87
2019-03-28T18:35:53.949Z,9.03
2019-03-28T18:40:49.880Z,8.17
2019-03-28T18:45:45.792Z,8.30
2019-03-28T18:50:41.811Z,8.87
2019-03-28T18:55:38.498Z,10.10
2019-03-28T19:00:34.490Z,7.53
2019-03-28T19:05:30.426Z,10.23
2019-03-28T19:10:26.333Z,8.30
2019-03-28T19:15:22.304Z,7.27
2019-03-28T19:20:18.367Z,9.10
2019-03-28T19:25:16.316Z,7.83
2019-03-28T19:30:12.874Z,6.07
2019-03-28T19:35:09.153Z,12.53
2019-03-28T19:40:08.429Z,9.63
2019-03-28T19:45:04.944Z,8.80
2019-03-28T19:50:00.962Z,9.50
2019-03-28T19:55:03.077Z,13.77
2019-03-28T19:59:59.207Z,9.20
2019-03-28T20:04:55.312Z,14.57
2019-03-28T20:09:51.230Z,13.93
2019-03-28T20:14:48.418Z,13.27
2019-03-28T20:19:44.381Z,11.60
2019-03-28T20:24:45.063Z,9.37
2019-03-28T20:29:42.406Z,9.00
2019-03-28T20:34:38.431Z,9.37
2019-03-28T20:39:34.379Z,12.03
2019-03-28T20:44:30.290Z,7.63
2019-03-28T20:49:26.306Z,11.37
2019-03-28T20:54:25.036Z,7.50
2019-03-28T20:59:21.198Z,13.83
2019-03-28T21:04:30.275Z,7.43
2019-03-28T21:09:14.927Z,8.90
2019-03-28T21:14:10.847Z,12.37
2019-03-28T21:19:06.757Z,10.27
2019-03-28T21:24:10.506Z,11.67
2019-03-28T21:29:06.453Z,16.00
2019-03-28T21:34:02.467Z,12.53
2019-03-28T21:38:58.382Z,12.27
2019-03-28T21:43:54.290Z,9.40
2019-03-28T21:48:50.216Z,13.03
2019-03-28T21:53:46.967Z,12.60
2019-03-28T21:58:43.002Z,16.03
2019-03-28T22:03:39.995Z,10.43
2019-03-28T22:08:36.048Z,12.63
2019-03-28T22:13:31.959Z,12.60
2019-03-28T22:18:27.884Z,9.67
2019-03-28T22:23:23.956Z,11.33
2019-03-28T22:28:19.859Z,8.47
2019-03-28T22:33:15.907Z,15.13
2019-03-28T22:38:12.032Z,10.13
2019-03-28T22:43:07.950Z,9.70
2019-03-28T22:48:10.740Z,11.40
2019-03-28T22:53:01.818Z,11.07
2019-03-28T22:57:57.761Z,17.90
2019-03-28T23:02:54.848Z,9.57
2019-03-28T23:07:51.000Z,9.57
2019-03-28T23:12:46.987Z,8.83
2019-03-28T23:17:42.903Z,11.20
2019-03-28T23:22:38.819Z,11.73
2019-03-28T23:27:34.729Z,12.33
2019-03-28T23:32:30.725Z,12.93
2019-03-28T23:37:26.912Z,11.53
2019-03-28T23:42:23.085Z,12.20
2019-03-28T23:47:18.996Z,11.57
2019-03-28T23:52:14.981Z,11.27
2019-03-28T23:57:10.923Z,12.43
